SJV997 WITT-WIMM
Flight info
| Callsign | SJV997 |
|---|---|
| Flight time | 0h 47m |
| Altitude | 33000 |
| Route | DUAMO |
| Aircraft | A320/M-SDE3FGHIRWY/LB1 |
Departure
| Time | 2026-04-22 15:36 |
|---|---|
| Airport | Sultan Iskandar Muda International Airport (WITT) |
Arrival
| Time | 2026-04-22 16:23 |
|---|---|
| Airport | Kualanamu International Airport (WIMM) |
| Time | Latitude | Longitude | Altitude | Speed | Heading |
|---|---|---|---|---|---|
| 2026-04-22 15:35 | 5.63294 | 95.45288 | 3772 ft | 268 kts | 73° |
| 2026-04-22 15:36 | 5.63836 | 95.47079 | 3958 ft | 268 kts | 73° |
| 2026-04-22 15:36 | 5.64412 | 95.48873 | 4528 ft | 270 kts | 71° |
| 2026-04-22 15:36 | 5.64997 | 95.50648 | 5359 ft | 272 kts | 76° |
| 2026-04-22 15:36 | 5.65037 | 95.52544 | 6123 ft | 277 kts | 103° |
| 2026-04-22 15:37 | 5.64196 | 95.54294 | 6836 ft | 282 kts | 124° |
| 2026-04-22 15:37 | 5.63063 | 95.55912 | 7595 ft | 285 kts | 124° |
| 2026-04-22 15:37 | 5.61908 | 95.57546 | 8334 ft | 288 kts | 124° |
| 2026-04-22 15:37 | 5.60746 | 95.59196 | 9064 ft | 292 kts | 124° |
| 2026-04-22 15:38 | 5.59571 | 95.60872 | 9777 ft | 295 kts | 124° |
| 2026-04-22 15:38 | 5.57114 | 95.64384 | 10424 ft | 328 kts | 123° |
| 2026-04-22 15:38 | 5.55766 | 95.66317 | 10580 ft | 347 kts | 124° |
| 2026-04-22 15:39 | 5.54361 | 95.68332 | 11022 ft | 355 kts | 124° |
| 2026-04-22 15:39 | 5.52934 | 95.70376 | 11581 ft | 359 kts | 124° |
| 2026-04-22 15:39 | 5.51494 | 95.72440 | 12156 ft | 363 kts | 123° |
| 2026-04-22 15:39 | 5.50040 | 95.74523 | 12731 ft | 367 kts | 123° |
| 2026-04-22 15:40 | 5.48566 | 95.76636 | 13299 ft | 370 kts | 123° |
| 2026-04-22 15:40 | 5.47082 | 95.78760 | 13835 ft | 374 kts | 123° |
| 2026-04-22 15:40 | 5.45581 | 95.80901 | 14329 ft | 377 kts | 124° |
| 2026-04-22 15:40 | 5.44065 | 95.83065 | 14819 ft | 380 kts | 124° |
| 2026-04-22 15:41 | 5.42539 | 95.85248 | 15313 ft | 383 kts | 123° |
| 2026-04-22 15:41 | 5.41006 | 95.87446 | 15797 ft | 386 kts | 123° |
| 2026-04-22 15:41 | 5.39699 | 95.89806 | 16271 ft | 388 kts | 111° |
| 2026-04-22 15:41 | 5.38878 | 95.92386 | 16749 ft | 389 kts | 100° |
| 2026-04-22 15:42 | 5.38552 | 95.95079 | 17232 ft | 391 kts | 92° |
| 2026-04-22 15:42 | 5.38357 | 95.97812 | 17727 ft | 394 kts | 92° |
| 2026-04-22 15:42 | 5.38157 | 96.00567 | 18202 ft | 397 kts | 93° |
| 2026-04-22 15:42 | 5.37950 | 96.03344 | 18620 ft | 400 kts | 93° |
| 2026-04-22 15:43 | 5.37737 | 96.06133 | 19058 ft | 403 kts | 93° |
| 2026-04-22 15:43 | 5.37522 | 96.08945 | 19505 ft | 405 kts | 93° |
| 2026-04-22 15:43 | 5.37310 | 96.11732 | 19959 ft | 407 kts | 93° |
| 2026-04-22 15:43 | 5.37094 | 96.14573 | 20428 ft | 409 kts | 93° |
| 2026-04-22 15:44 | 5.36878 | 96.17429 | 20884 ft | 411 kts | 93° |
| 2026-04-22 15:44 | 5.36663 | 96.20299 | 21327 ft | 413 kts | 93° |
| 2026-04-22 15:44 | 5.36448 | 96.23178 | 21762 ft | 415 kts | 93° |
| 2026-04-22 15:44 | 5.36228 | 96.26076 | 22184 ft | 417 kts | 93° |
| 2026-04-22 15:45 | 5.36002 | 96.28986 | 22594 ft | 419 kts | 94° |
| 2026-04-22 15:45 | 5.35775 | 96.31903 | 22996 ft | 421 kts | 94° |
| 2026-04-22 15:45 | 5.35551 | 96.34839 | 23377 ft | 423 kts | 94° |
| 2026-04-22 15:45 | 5.35329 | 96.37783 | 23702 ft | 425 kts | 94° |
| 2026-04-22 15:46 | 5.35108 | 96.40745 | 24020 ft | 426 kts | 94° |
| 2026-04-22 15:46 | 5.34885 | 96.43710 | 24329 ft | 427 kts | 94° |
| 2026-04-22 15:46 | 5.34658 | 96.46691 | 24634 ft | 429 kts | 94° |
| 2026-04-22 15:46 | 5.34430 | 96.49675 | 24938 ft | 430 kts | 94° |
| 2026-04-22 15:47 | 5.34201 | 96.52674 | 25245 ft | 431 kts | 94° |
| 2026-04-22 15:47 | 5.33973 | 96.55677 | 25543 ft | 433 kts | 94° |
| 2026-04-22 15:47 | 5.33742 | 96.58697 | 25842 ft | 434 kts | 94° |
| 2026-04-22 15:47 | 5.33511 | 96.61719 | 26136 ft | 435 kts | 94° |
| 2026-04-22 15:48 | 5.33279 | 96.64756 | 26422 ft | 437 kts | 94° |
| 2026-04-22 15:48 | 5.33047 | 96.67761 | 26695 ft | 438 kts | 94° |
| 2026-04-22 15:48 | 5.32811 | 96.70817 | 26965 ft | 439 kts | 94° |
| 2026-04-22 15:48 | 5.32577 | 96.73882 | 27239 ft | 441 kts | 94° |
| 2026-04-22 15:49 | 5.32343 | 96.76957 | 27513 ft | 442 kts | 94° |
| 2026-04-22 15:49 | 5.32105 | 96.80040 | 27780 ft | 444 kts | 94° |
| 2026-04-22 15:49 | 5.31868 | 96.83134 | 28055 ft | 445 kts | 94° |
| 2026-04-22 15:49 | 5.31629 | 96.86238 | 28330 ft | 446 kts | 94° |
| 2026-04-22 15:50 | 5.31391 | 96.89345 | 28607 ft | 448 kts | 94° |
| 2026-04-22 15:50 | 5.31150 | 96.92469 | 28870 ft | 449 kts | 94° |
| 2026-04-22 15:50 | 5.30909 | 96.95598 | 29232 ft | 448 kts | 94° |
| 2026-04-22 15:50 | 5.30672 | 96.98670 | 29663 ft | 446 kts | 94° |
| 2026-04-22 15:51 | 5.30433 | 97.01765 | 30065 ft | 445 kts | 94° |
| 2026-04-22 15:51 | 5.30192 | 97.04856 | 30416 ft | 443 kts | 94° |
| 2026-04-22 15:51 | 5.29954 | 97.07937 | 30763 ft | 442 kts | 94° |
| 2026-04-22 15:51 | 5.29721 | 97.11011 | 31112 ft | 441 kts | 94° |
| 2026-04-22 15:52 | 5.29487 | 97.14078 | 31466 ft | 440 kts | 94° |
| 2026-04-22 15:52 | 5.29250 | 97.17136 | 31826 ft | 439 kts | 94° |
| 2026-04-22 15:52 | 5.29012 | 97.20179 | 32195 ft | 437 kts | 94° |
| 2026-04-22 15:52 | 5.28774 | 97.23221 | 32567 ft | 436 kts | 94° |
| 2026-04-22 15:53 | 5.28536 | 97.26249 | 32915 ft | 436 kts | 94° |
| 2026-04-22 15:53 | 5.28300 | 97.29286 | 33009 ft | 438 kts | 94° |
| 2026-04-22 15:53 | 5.27825 | 97.35416 | 33024 ft | 442 kts | 94° |
| 2026-04-22 15:54 | 5.27351 | 97.41563 | 33025 ft | 442 kts | 94° |
| 2026-04-22 15:54 | 5.26764 | 97.47702 | 33034 ft | 443 kts | 100° |
| 2026-04-22 15:55 | 5.24581 | 97.53473 | 33020 ft | 446 kts | 120° |
| 2026-04-22 15:55 | 5.20843 | 97.58461 | 33017 ft | 448 kts | 126° |
| 2026-04-22 15:56 | 5.16974 | 97.63367 | 33019 ft | 449 kts | 126° |
| 2026-04-22 15:56 | 5.13100 | 97.68277 | 33025 ft | 449 kts | 126° |
| 2026-04-22 15:57 | 5.09252 | 97.73156 | 33045 ft | 447 kts | 126° |
| 2026-04-22 15:57 | 5.05402 | 97.78042 | 33048 ft | 446 kts | 126° |
| 2026-04-22 15:58 | 5.01495 | 97.82856 | 33045 ft | 446 kts | 133° |
| 2026-04-22 15:58 | 4.96462 | 97.86499 | 33045 ft | 450 kts | 152° |
| 2026-04-22 15:59 | 4.90651 | 97.88892 | 33046 ft | 452 kts | 155° |
| 2026-04-22 15:59 | 4.87735 | 97.90072 | 32420 ft | 453 kts | 155° |
| 2026-04-22 15:59 | 4.84761 | 97.91280 | 30969 ft | 470 kts | 156° |
| 2026-04-22 16:00 | 4.82733 | 97.92105 | 30157 ft | 478 kts | 156° |
| 2026-04-22 16:00 | 4.78594 | 97.93787 | 28885 ft | 478 kts | 156° |
| 2026-04-22 16:00 | 4.75556 | 97.95017 | 28091 ft | 475 kts | 156° |
| 2026-04-22 16:00 | 4.73494 | 97.95850 | 27545 ft | 471 kts | 156° |
| 2026-04-22 16:01 | 4.69497 | 97.97464 | 26358 ft | 463 kts | 156° |
| 2026-04-22 16:01 | 4.66528 | 97.98665 | 25519 ft | 458 kts | 156° |
| 2026-04-22 16:01 | 4.63590 | 97.99856 | 24708 ft | 453 kts | 156° |
| 2026-04-22 16:01 | 4.60693 | 98.01036 | 23926 ft | 448 kts | 156° |
| 2026-04-22 16:02 | 4.57821 | 98.02207 | 23107 ft | 443 kts | 156° |
| 2026-04-22 16:02 | 4.54985 | 98.03361 | 22212 ft | 438 kts | 157° |
| 2026-04-22 16:02 | 4.52166 | 98.04506 | 21432 ft | 436 kts | 157° |
| 2026-04-22 16:02 | 4.50275 | 98.05275 | 21031 ft | 433 kts | 157° |
| 2026-04-22 16:03 | 4.46589 | 98.06769 | 20208 ft | 430 kts | 157° |
| 2026-04-22 16:03 | 4.43831 | 98.07884 | 19660 ft | 426 kts | 157° |
| 2026-04-22 16:03 | 4.42008 | 98.08619 | 19302 ft | 424 kts | 157° |
| 2026-04-22 16:03 | 4.39282 | 98.09721 | 18788 ft | 422 kts | 157° |
| 2026-04-22 16:04 | 4.36536 | 98.10837 | 18280 ft | 419 kts | 157° |
| 2026-04-22 16:04 | 4.33874 | 98.11921 | 17750 ft | 417 kts | 157° |
| 2026-04-22 16:04 | 4.31192 | 98.13011 | 17201 ft | 414 kts | 157° |
| 2026-04-22 16:04 | 4.28530 | 98.14090 | 16677 ft | 411 kts | 157° |
| 2026-04-22 16:05 | 4.25894 | 98.15155 | 16132 ft | 407 kts | 157° |
| 2026-04-22 16:05 | 4.23279 | 98.16213 | 15601 ft | 404 kts | 157° |
| 2026-04-22 16:05 | 4.20654 | 98.17201 | 15063 ft | 401 kts | 164° |
| 2026-04-22 16:05 | 4.17910 | 98.17640 | 14540 ft | 398 kts | 176° |
| 2026-04-22 16:06 | 4.15154 | 98.17796 | 13989 ft | 396 kts | 176° |
| 2026-04-22 16:06 | 4.12410 | 98.17946 | 13412 ft | 393 kts | 176° |
| 2026-04-22 16:06 | 4.09689 | 98.18092 | 12822 ft | 390 kts | 176° |
| 2026-04-22 16:06 | 4.06992 | 98.18235 | 12255 ft | 386 kts | 176° |
| 2026-04-22 16:07 | 4.04329 | 98.18378 | 11707 ft | 382 kts | 176° |
| 2026-04-22 16:07 | 4.01698 | 98.18522 | 11337 ft | 373 kts | 176° |
| 2026-04-22 16:07 | 3.99146 | 98.18667 | 11097 ft | 361 kts | 176° |
| 2026-04-22 16:07 | 3.96660 | 98.18808 | 10902 ft | 354 kts | 176° |
| 2026-04-22 16:08 | 3.94201 | 98.18949 | 11020 ft | 355 kts | 176° |
| 2026-04-22 16:08 | 3.91766 | 98.19089 | 11032 ft | 355 kts | 176° |
| 2026-04-22 16:08 | 3.89302 | 98.19229 | 11032 ft | 355 kts | 176° |
| 2026-04-22 16:08 | 3.86804 | 98.19370 | 11033 ft | 355 kts | 176° |
| 2026-04-22 16:09 | 3.84367 | 98.19505 | 11033 ft | 355 kts | 176° |
| 2026-04-22 16:09 | 3.81898 | 98.19642 | 11037 ft | 354 kts | 176° |
| 2026-04-22 16:09 | 3.79475 | 98.19895 | 11039 ft | 336 kts | 166° |
| 2026-04-22 16:09 | 3.77385 | 98.20696 | 11032 ft | 319 kts | 149° |
| 2026-04-22 16:10 | 3.75640 | 98.21987 | 10882 ft | 309 kts | 134° |
| 2026-04-22 16:10 | 3.74326 | 98.23674 | 10517 ft | 307 kts | 119° |
| 2026-04-22 16:10 | 3.73263 | 98.25516 | 10214 ft | 304 kts | 119° |
| 2026-04-22 16:10 | 3.72204 | 98.27338 | 9913 ft | 301 kts | 119° |
| 2026-04-22 16:11 | 3.71153 | 98.29137 | 9639 ft | 298 kts | 120° |
| 2026-04-22 16:11 | 3.70107 | 98.30923 | 9344 ft | 296 kts | 120° |
| 2026-04-22 16:11 | 3.69069 | 98.32689 | 9065 ft | 294 kts | 120° |
| 2026-04-22 16:11 | 3.68034 | 98.34449 | 8788 ft | 292 kts | 120° |
| 2026-04-22 16:12 | 3.67002 | 98.36200 | 8505 ft | 291 kts | 120° |
| 2026-04-22 16:12 | 3.65977 | 98.37938 | 8243 ft | 290 kts | 120° |
| 2026-04-22 16:12 | 3.64953 | 98.39677 | 7975 ft | 288 kts | 120° |
| 2026-04-22 16:12 | 3.63938 | 98.41403 | 7698 ft | 287 kts | 120° |
| 2026-04-22 16:13 | 3.62930 | 98.43120 | 7426 ft | 285 kts | 120° |
| 2026-04-22 16:13 | 3.61927 | 98.44832 | 7156 ft | 284 kts | 119° |
| 2026-04-22 16:13 | 3.60932 | 98.46533 | 6892 ft | 283 kts | 120° |
| 2026-04-22 16:13 | 3.59936 | 98.48230 | 6637 ft | 281 kts | 120° |
| 2026-04-22 16:14 | 3.58945 | 98.49913 | 6371 ft | 280 kts | 120° |
| 2026-04-22 16:14 | 3.57959 | 98.51589 | 6101 ft | 279 kts | 120° |
| 2026-04-22 16:14 | 3.56975 | 98.53260 | 5835 ft | 278 kts | 120° |
| 2026-04-22 16:14 | 3.55898 | 98.54858 | 5575 ft | 277 kts | 130° |
| 2026-04-22 16:15 | 3.54571 | 98.56256 | 5323 ft | 275 kts | 133° |
| 2026-04-22 16:15 | 3.53267 | 98.57608 | 5198 ft | 266 kts | 133° |
| 2026-04-22 16:15 | 3.52003 | 98.58919 | 5084 ft | 257 kts | 133° |
| 2026-04-22 16:15 | 3.50803 | 98.60166 | 4968 ft | 248 kts | 133° |
| 2026-04-22 16:16 | 3.49628 | 98.61391 | 4846 ft | 238 kts | 133° |
| 2026-04-22 16:16 | 3.48498 | 98.62568 | 4656 ft | 232 kts | 134° |
| 2026-04-22 16:16 | 3.47380 | 98.63732 | 4248 ft | 236 kts | 134° |
| 2026-04-22 16:16 | 3.46251 | 98.64946 | 3895 ft | 237 kts | 127° |
| 2026-04-22 16:17 | 3.45556 | 98.66417 | 3626 ft | 233 kts | 101° |
| 2026-04-22 16:17 | 3.45543 | 98.67995 | 3473 ft | 224 kts | 77° |
| 2026-04-22 16:17 | 3.46138 | 98.69385 | 3348 ft | 213 kts | 53° |
| 2026-04-22 16:17 | 3.47125 | 98.70452 | 3237 ft | 207 kts | 44° |
| 2026-04-22 16:18 | 3.48142 | 98.71464 | 3136 ft | 206 kts | 45° |
| 2026-04-22 16:18 | 3.49160 | 98.72478 | 3052 ft | 206 kts | 45° |
| 2026-04-22 16:18 | 3.50165 | 98.73479 | 3026 ft | 197 kts | 45° |
| 2026-04-22 16:18 | 3.51098 | 98.74409 | 2966 ft | 184 kts | 45° |
| 2026-04-22 16:19 | 3.51989 | 98.75297 | 2780 ft | 178 kts | 45° |
| 2026-04-22 16:19 | 3.52858 | 98.76162 | 2571 ft | 175 kts | 45° |
| 2026-04-22 16:19 | 3.53711 | 98.77012 | 2357 ft | 172 kts | 45° |
| 2026-04-22 16:19 | 3.54553 | 98.77851 | 2139 ft | 169 kts | 45° |
| 2026-04-22 16:20 | 3.55373 | 98.78668 | 1936 ft | 167 kts | 45° |
| 2026-04-22 16:20 | 3.56187 | 98.79478 | 1704 ft | 162 kts | 45° |
| 2026-04-22 16:20 | 3.56970 | 98.80259 | 1512 ft | 157 kts | 45° |
| 2026-04-22 16:20 | 3.57740 | 98.81026 | 1307 ft | 155 kts | 45° |
| 2026-04-22 16:21 | 3.58503 | 98.81786 | 1122 ft | 154 kts | 45° |
| 2026-04-22 16:21 | 3.59264 | 98.82544 | 931 ft | 154 kts | 45° |
| 2026-04-22 16:21 | 3.60015 | 98.83299 | 745 ft | 152 kts | 47° |
| 2026-04-22 16:21 | 3.60757 | 98.84065 | 554 ft | 153 kts | 46° |
| 2026-04-22 16:22 | 3.62277 | 98.85542 | 148 ft | 152 kts | 46° |
| 2026-04-22 16:22 | 3.63003 | 98.86279 | 38 ft | 138 kts | 45° |
| 2026-04-22 16:22 | 3.63559 | 98.86834 | 36 ft | 88 kts | 44° |
| 2026-04-22 16:23 | 3.63984 | 98.87255 | 36 ft | 20 kts | 43° |
| 2026-04-22 16:23 | 3.64078 | 98.87366 | 35 ft | 22 kts | 72° |
| 2026-04-22 16:23 | 3.64117 | 98.87524 | 36 ft | 24 kts | 78° |
| 2026-04-22 16:24 | 3.64174 | 98.87682 | 37 ft | 25 kts | 61° |
| 2026-04-22 16:24 | 3.64276 | 98.87887 | 40 ft | 13 kts | 112° |
| 2026-04-22 16:24 | 3.64295 | 98.87976 | 40 ft | 14 kts | 102° |
| 2026-04-22 16:25 | 3.64227 | 98.88052 | 40 ft | 16 kts | 135° |
| 2026-04-22 16:25 | 3.64075 | 98.88111 | 40 ft | 12 kts | 224° |
| 2026-04-22 16:25 | 3.64012 | 98.88049 | 40 ft | 13 kts | 225° |
| 2026-04-22 16:26 | 3.63944 | 98.87981 | 40 ft | 14 kts | 225° |
| 2026-04-22 16:26 | 3.63865 | 98.87980 | 40 ft | 13 kts | 136° |
| 2026-04-22 16:26 | 3.63799 | 98.88047 | 40 ft | 14 kts | 134° |
| 2026-04-22 16:26 | 3.63766 | 98.88052 | 40 ft | 4 kts | 231° |
| 2026-04-22 16:27 | 3.63747 | 98.88032 | 40 ft | 4 kts | 226° |
| 2026-04-22 16:27 | 3.63724 | 98.88009 | 40 ft | 5 kts | 225° |
| 2026-04-22 16:27 | 3.63712 | 98.87997 | 40 ft | 0 kts | 225° |